EDT,Max TemperatureF,Mean TemperatureF,Min TemperatureF,Max Dew PointF,MeanDew PointF,Min DewpointF,Max Humidity, Mean Humidity, Min Humidity, Max Sea Level PressureIn, Mean Sea Level PressureIn, Min Sea Level PressureIn, Max VisibilityMiles, Mean VisibilityMiles, Min VisibilityMiles, Max Wind SpeedMPH, Mean Wind SpeedMPH, Max Gust SpeedMPH,PrecipitationIn, CloudCover, Events, WindDirDegrees
2013-8-1,84,78,73,75,74,70,96,85,72,30.05,29.97,29.90,10,9,2,17,6,23,0.48,5,Rain,185
2013-8-2,88,82,77,79,76,75,94,84,65,30.06,30.01,29.92,10,8,0,14,9,22,0.46,4,Fog-Rain,220
2013-8-3,89,83,78,78,76,73,94,83,61,30.06,30.01,29.95,10,10,2,17,9,21,0.11,1,Rain,216
2013-8-4,84,80,75,77,73,62,94,81,58,30.03,29.93,29.87,10,9,0,16,7,22,0.56,3,Fog-Rain,334
2013-8-5,82,78,73,68,63,56,84,60,41,30.10,30.06,30.02,10,10,10,10,6,,0.00,0,,46
2013-8-6,84,78,72,71,67,65,85,69,53,30.10,30.07,30.03,10,10,10,12,4,,0.00,2,,129
2013-8-7,86,80,73,73,70,69,85,71,59,30.13,30.10,30.08,10,10,10,15,5,,0.00,1,,125
2013-8-8,87,82,79,78,77,76,94,82,72,30.09,30.07,30.03,10,9,4,10,6,17,0.05,2,Rain,167
2013-8-9,91,84,78,79,77,75,94,79,61,30.10,30.07,30.04,10,9,2,18,8,25,0.00,2,,212
2013-8-10,93,83,75,78,76,73,100,80,61,30.17,30.10,30.04,10,9,2,16,10,28,0.27,1,Rain,228
2013-8-11,91,83,75,79,77,73,94,84,59,30.13,30.09,30.04,10,9,5,10,6,,0.01,2,Rain,231
2013-8-12,93,84,78,80,77,73,93,80,62,30.09,30.02,29.95,10,10,5,13,9,18,0.04,2,Rain,236
2013-8-13,90,84,77,79,77,73,94,82,68,29.96,29.92,29.88,10,8,0,33,9,51,0.01,3,Rain,217
2013-8-14,82,76,73,74,65,59,84,68,57,30.07,29.99,29.93,10,10,9,15,11,20,0.00,7,Rain,20
2013-8-15,75,71,69,70,66,59,94,82,59,30.12,30.09,30.06,10,8,2,14,11,21,0.50,8,Rain,40
2013-8-16,75,73,71,71,69,68,94,87,79,30.15,30.10,30.04,10,10,7,14,11,20,0.03,8,Rain,11
2013-8-17,82,78,73,76,74,68,96,90,71,30.15,30.11,30.06,10,9,2,14,8,22,0.13,7,Rain,72
2013-8-18,88,80,73,77,74,72,100,85,61,30.20,30.15,30.11,10,10,7,13,8,,0.00,3,,255
2013-8-19,81,78,75,77,75,73,100,92,84,30.19,30.14,30.11,10,6,1,13,8,20,1.71,7,Rain,46
2013-8-20,82,80,77,74,73,72,90,82,71,30.20,30.15,30.10,10,10,8,10,6,,0.00,7,,43
2013-8-21,87,82,78,77,75,73,93,77,65,30.25,30.18,30.15,10,10,8,10,7,,0.00,0,,119
2013-8-22,88,81,75,77,75,73,94,85,67,30.15,30.10,30.02,10,10,8,13,6,,0.00,0,,246
2013-8-23,91,82,73,76,73,68,100,82,52,30.03,29.99,29.92,10,8,1,26,7,33,0.94,3,Rain,245
2013-8-24,82,78,73,74,69,64,97,77,58,30.26,30.12,30.02,10,9,1,24,12,33,0.31,4,Rain,20
2013-8-25,81,76,73,66,64,62,79,65,60,30.35,30.29,30.25,10,10,10,18,16,25,0.00,0,,36
2013-8-26,84,76,70,66,62,54,81,64,37,30.28,30.22,30.14,10,10,10,9,7,,0.00,0,,37
2013-8-27,87,76,68,68,65,61,90,68,46,30.14,30.06,30.00,10,10,10,14,7,20,0.00,0,,226
2013-8-28,88,80,73,77,72,68,94,78,65,30.01,29.96,29.91,10,9,6,13,7,,0.00,1,,225
2013-8-29,86,78,73,76,74,70,97,87,72,30.00,29.90,29.84,10,7,5,18,11,25,0.02,5,,345
2013-8-30,82,78,75,75,72,71,90,83,71,30.06,30.00,29.96,10,10,9,15,9,18,0.00,3,,47
2013-8-31,89,80,73,76,74,71,100,86,57,30.01,29.96,29.91,10,7,0,14,3,20,0.00,1,Fog,175